Time;durP1;ratioP1;P1;durP2;ratioP2;P2;SDS_P1;SDS_P2;PMS_P1;PMS_P2;Temp;Humidity;BMP_temperature;BMP_pressure;BME280_temperature;BME280_humidity;BME280_pressure;Samples;Min_cycle;Max_cycle;Signal;HPM_P1;HPM_P2
2021/06/04 00:02:17;;;;;;;9.05;3.58;;;;;;;14.03;56.75;100065.50;5056877;28;20500;-70
2021/06/04 00:04:43;;;;;;;15.40;4.10;;;;;;;14.01;56.70;100062.19;5056772;28;20046;-70
2021/06/04 00:07:09;;;;;;;7.97;4.03;;;;;;;14.01;56.88;100067.53;5073484;28;20200;-71
2021/06/04 00:09:35;;;;;;;11.35;4.07;;;;;;;13.97;56.64;100056.34;5056978;28;20465;-72
2021/06/04 00:12:02;;;;;;;16.33;4.10;;;;;;;13.96;56.85;100064.53;5056540;28;20146;-71
2021/06/04 00:14:40;;;;;;;15.07;4.10;;;;;;;13.81;57.05;100035.00;5090275;28;20118;-70
2021/06/04 00:17:13;;;;;;;13.25;3.90;;;;;;;13.91;57.18;100058.84;5087776;28;20189;-70
2021/06/04 00:19:39;;;;;;;9.63;4.00;;;;;;;13.90;56.92;100054.53;5087774;28;20040;-70
2021/06/04 00:22:17;;;;;;;14.55;3.78;;;;;;;13.73;56.95;100048.34;5071201;28;20135;-70
2021/06/04 00:24:45;;;;;;;17.70;3.58;;;;;;;13.74;57.10;100043.84;5054117;28;20404;-71
2021/06/04 00:27:11;;;;;;;14.07;3.92;;;;;;;13.80;57.20;100067.22;5054356;28;20051;-71
2021/06/04 00:29:38;;;;;;;12.93;4.00;;;;;;;13.63;57.47;100052.19;5071060;28;20073;-70
2021/06/04 00:32:05;;;;;;;14.43;4.00;;;;;;;13.74;57.79;100071.41;5054337;28;20036;-70
2021/06/04 00:34:31;;;;;;;13.75;3.67;;;;;;;13.69;57.64;100067.53;5051235;28;20586;-70
2021/06/04 00:36:57;;;;;;;11.07;3.47;;;;;;;13.66;57.65;100058.03;5054110;28;20070;-70
2021/06/04 00:39:27;;;;;;;9.10;3.60;;;;;;;13.68;57.77;100068.56;5054167;28;20397;-71
2021/06/04 00:41:57;;;;;;;5.70;3.05;;;;;;;13.66;57.46;100073.22;5070719;28;20032;-71
2021/06/04 00:44:25;;;;;;;9.80;3.40;;;;;;;13.63;57.80;100065.53;5070740;28;20032;-71
2021/06/04 00:46:53;;;;;;;7.03;2.92;;;;;;;13.62;57.84;100066.56;5070682;28;20063;-69
2021/06/04 00:49:19;;;;;;;6.45;2.90;;;;;;;13.66;57.79;100065.22;5068427;28;20126;-71
2021/06/04 00:51:50;;;;;;;8.52;3.40;;;;;;;13.66;57.59;100076.72;5055583;28;20048;-69
2021/06/04 00:54:17;;;;;;;7.28;4.55;;;;;;;13.66;57.76;100071.38;5050417;28;20091;-68
2021/06/04 00:56:47;;;;;;;7.43;2.70;;;;;;;13.68;57.81;100081.91;5072886;28;20411;-68
2021/06/04 00:59:15;;;;;;;5.10;2.60;;;;;;;13.52;57.73;100056.03;5056295;28;20044;-69
2021/06/04 01:01:42;;;;;;;8.10;3.00;;;;;;;13.65;57.55;100084.91;5072546;28;20053;-70
2021/06/04 01:04:12;;;;;;;12.63;3.00;;;;;;;13.63;57.96;100086.91;5076906;28;20044;-69
2021/06/04 01:06:44;;;;;;;6.70;3.20;;;;;;;13.58;57.89;100080.22;5076785;28;20134;-69
2021/06/04 01:09:25;;;;;;;7.90;3.05;;;;;;;13.53;58.05;100087.91;5077028;28;20127;-68
2021/06/04 01:12:42;;;;;;;6.68;3.03;;;;;;;13.50;58.13;100085.56;5076294;28;20488;-70
2021/06/04 01:15:24;;;;;;;5.80;2.95;;;;;;;13.45;57.96;100101.22;5026782;28;20138;-69
2021/06/04 01:17:54;;;;;;;9.73;3.20;;;;;;;13.41;58.35;100097.22;5076363;28;20059;-70
2021/06/04 01:20:25;;;;;;;15.23;2.80;;;;;;;13.36;58.53;100107.56;5076231;28;20129;-71
2021/06/04 01:23:15;;;;;;;6.75;2.80;;;;;;;13.37;58.64;100111.06;5092960;28;20492;-70
2021/06/04 01:25:44;;;;;;;6.30;2.70;;;;;;;13.37;58.32;100100.41;5070160;28;20047;-74
2021/06/04 01:28:25;;;;;;;7.97;3.20;;;;;;;13.35;58.49;100113.91;5091182;28;20036;-74
2021/06/04 01:31:23;;;;;;;5.30;2.63;;;;;;;13.33;58.31;100105.22;5075774;28;20143;-73
2021/06/04 01:34:03;;;;;;;9.43;3.03;;;;;;;13.31;58.59;100101.91;5074763;28;20151;-73
2021/06/04 01:36:38;;;;;;;15.90;4.43;;;;;;;13.30;58.82;100105.53;5059545;28;20532;-72
2021/06/04 01:39:12;;;;;;;7.93;3.50;;;;;;;13.29;58.61;100114.56;5090934;28;20566;-72
2021/06/04 01:41:41;;;;;;;10.45;3.13;;;;;;;13.29;58.49;100109.22;5058462;28;20084;-72
2021/06/04 01:44:13;;;;;;;8.65;3.40;;;;;;;13.15;58.70;100091.19;5091069;28;20139;-71
2021/06/04 01:46:43;;;;;;;7.95;3.55;;;;;;;13.19;58.44;100094.38;5058296;28;20051;-72
2021/06/04 01:49:16;;;;;;;6.90;3.60;;;;;;;13.11;58.55;100089.00;5057810;28;20066;-72
2021/06/04 01:51:48;;;;;;;4.45;2.80;;;;;;;13.22;58.73;100108.19;5074543;28;20040;-72
2021/06/04 01:54:31;;;;;;;12.98;2.88;;;;;;;13.18;58.92;100106.84;5093575;28;20069;-71
2021/06/04 01:57:05;;;;;;;5.97;3.55;;;;;;;13.17;58.62;100112.34;5075853;28;20450;-72
2021/06/04 01:59:37;;;;;;;4.57;2.42;;;;;;;13.17;58.25;100107.88;5059924;28;20147;-72
2021/06/04 02:02:32;;;;;;;8.02;2.78;;;;;;;13.16;58.80;100108.84;5079187;28;20128;-72
2021/06/04 02:04:58;;;;;;;8.20;2.42;;;;;;;13.15;58.88;100112.53;5058377;28;20043;-71
2021/06/04 02:07:29;;;;;;;12.30;3.78;;;;;;;13.14;58.62;100113.53;5059380;28;20100;-73
2021/06/04 02:09:58;;;;;;;9.02;3.08;;;;;;;13.17;58.36;100121.19;5075683;28;20537;-72
2021/06/04 02:12:29;;;;;;;11.30;3.55;;;;;;;13.17;58.62;100117.69;5076328;28;20055;-73
2021/06/04 02:15:13;;;;;;;11.60;3.30;;;;;;;13.17;58.83;100115.88;5059950;28;20054;-73
2021/06/04 02:17:44;;;;;;;9.10;3.05;;;;;;;13.17;58.39;100123.88;5059388;28;20082;-74
2021/06/04 02:20:26;;;;;;;10.10;3.78;;;;;;;13.17;58.52;100121.19;5076243;28;20048;-72
2021/06/04 02:23:22;;;;;;;8.10;3.53;;;;;;;13.19;58.61;100123.72;5091920;28;20051;-72
2021/06/04 02:26:09;;;;;;;11.00;3.83;;;;;;;13.17;58.50;100118.53;5091588;28;20062;-72
2021/06/04 02:28:39;;;;;;;11.82;3.72;;;;;;;13.21;58.33;100124.34;5072804;28;20131;-72
2021/06/04 02:31:16;;;;;;;8.88;3.30;;;;;;;13.22;58.51;100128.72;5055999;28;20063;-73
2021/06/04 02:33:50;;;;;;;9.40;4.72;;;;;;;13.21;58.34;100122.53;5055983;28;20050;-73
2021/06/04 02:36:34;;;;;;;6.88;3.75;;;;;;;13.23;58.41;100127.72;5072373;28;20134;-74
2021/06/04 02:39:10;;;;;;;7.40;3.13;;;;;;;13.25;58.30;100126.53;5055641;28;20192;-74
2021/06/04 02:41:45;;;;;;;9.00;3.30;;;;;;;13.30;58.09;100129.56;5072354;28;20044;-74
2021/06/04 02:44:23;;;;;;;12.50;3.08;;;;;;;13.33;57.88;100136.41;5057557;28;20554;-73
2021/06/04 02:46:54;;;;;;;10.07;2.90;;;;;;;13.35;57.71;100134.41;5066697;28;20052;-71
2021/06/04 02:49:21;;;;;;;5.20;2.53;;;;;;;13.25;57.67;100117.72;5094956;28;20504;-70
2021/06/04 02:51:56;;;;;;;10.77;2.67;;;;;;;13.40;57.80;100135.59;5057247;28;20088;-71
2021/06/04 02:54:30;;;;;;;7.18;2.90;;;;;;;13.44;57.49;100128.91;5057612;28;20044;-71
2021/06/04 02:57:05;;;;;;;8.00;2.70;;;;;;;13.36;57.55;100109.41;5074326;28;20193;-70
2021/06/04 02:59:39;;;;;;;6.68;2.60;;;;;;;13.50;57.05;100138.09;5041205;28;20032;-71
2021/06/04 03:02:13;;;;;;;4.80;2.42;;;;;;;13.53;56.98;100127.94;5084467;28;20079;-70
2021/06/04 03:04:43;;;;;;;4.97;2.47;;;;;;;13.61;56.86;100142.31;5094441;28;20035;-71
2021/06/04 03:07:19;;;;;;;8.20;2.72;;;;;;;13.65;56.54;100140.97;5078067;28;20134;-71
2021/06/04 03:09:45;;;;;;;7.93;3.00;;;;;;;13.71;56.75;100141.13;5094582;28;20584;-71
2021/06/04 03:12:26;;;;;;;7.50;3.25;;;;;;;13.75;56.45;100136.28;5111183;28;20495;-71
2021/06/04 03:14:53;;;;;;;7.93;2.70;;;;;;;13.79;56.41;100137.63;5094058;28;20047;-70
2021/06/04 03:17:22;;;;;;;13.57;2.90;;;;;;;13.80;55.78;100117.94;5094044;28;20419;-72
2021/06/04 03:19:48;;;;;;;6.47;2.38;;;;;;;13.94;55.82;100139.47;5077475;28;20399;-72
2021/06/04 03:22:22;;;;;;;9.13;2.50;;;;;;;14.01;55.53;100139.66;5094098;28;20507;-72
2021/06/04 03:24:50;;;;;;;9.52;2.58;;;;;;;14.06;55.76;100139.97;5076899;28;20092;-73
2021/06/04 03:27:19;;;;;;;8.90;3.50;;;;;;;14.12;55.22;100147.28;5094216;28;20054;-71
2021/06/04 03:29:50;;;;;;;6.47;2.50;;;;;;;14.16;55.30;100143.31;5077941;28;20036;-72
2021/06/04 03:32:17;;;;;;;6.65;2.60;;;;;;;14.21;55.12;100155.13;5077042;28;20459;-75
2021/06/04 03:35:00;;;;;;;7.35;2.28;;;;;;;14.29;55.12;100144.47;5081750;28;20142;-71
2021/06/04 03:37:26;;;;;;;6.05;2.33;;;;;;;14.35;54.89;100153.66;5110665;28;20040;-72
2021/06/04 03:39:52;;;;;;;5.32;2.20;;;;;;;14.41;54.73;100150.28;5076957;28;20093;-72
2021/06/04 03:42:25;;;;;;;15.07;2.15;;;;;;;14.48;54.66;100145.97;5076084;28;20047;-72
2021/06/04 03:44:54;;;;;;;14.57;2.40;;;;;;;14.56;53.83;100148.63;5111376;28;20104;-71
2021/06/04 03:47:24;;;;;;;7.93;2.05;;;;;;;14.62;53.83;100146.06;5077201;28;20048;-72
2021/06/04 03:49:53;;;;;;;8.95;2.47;;;;;;;14.69;53.66;100149.75;5093636;28;20047;-72
2021/06/04 03:52:21;;;;;;;3.70;2.25;;;;;;;14.76;53.50;100152.56;5093089;28;20036;-73
2021/06/04 03:54:50;;;;;;;4.60;2.25;;;;;;;14.85;53.24;100148.84;5111387;28;20443;-73
2021/06/04 03:57:19;;;;;;;3.97;1.90;;;;;;;14.83;52.95;100126.78;5084870;28;20793;-72
2021/06/04 03:59:46;;;;;;;7.15;2.40;;;;;;;15.00;52.83;100153.31;5111296;28;20045;-72
2021/06/04 04:02:16;;;;;;;6.40;2.10;;;;;;;15.05;52.54;100140.22;5109613;28;20088;-72
2021/06/04 04:04:42;;;;;;;7.45;1.92;;;;;;;15.16;52.71;100147.88;5075802;28;20139;-71
2021/06/04 04:07:09;;;;;;;11.40;2.25;;;;;;;15.27;52.49;100134.09;5075987;28;20043;-71
2021/06/04 04:09:34;;;;;;;4.55;2.10;;;;;;;15.32;52.23;100132.72;5109892;28;20055;-71
2021/06/04 04:12:00;;;;;;;10.70;2.30;;;;;;;15.42;51.85;100136.06;5075517;28;20052;-72
2021/06/04 04:14:26;;;;;;;7.93;2.22;;;;;;;15.45;51.53;100130.34;5075531;28;20103;-72
2021/06/04 04:16:53;;;;;;;11.45;2.60;;;;;;;15.37;51.56;100114.31;5092591;28;20120;-72
2021/06/04 04:19:21;;;;;;;7.93;2.20;;;;;;;15.59;51.45;100138.44;5110982;28;20043;-73
2021/06/04 04:21:49;;;;;;;8.48;3.53;;;;;;;15.66;50.78;100138.56;5093071;28;20134;-70
2021/06/04 04:24:18;;;;;;;5.95;2.25;;;;;;;15.75;50.78;100132.97;5093139;28;20419;-71
2021/06/04 04:26:45;;;;;;;17.25;3.40;;;;;;;15.83;50.45;100130.25;5075967;28;20054;-71
2021/06/04 04:29:11;;;;;;;9.13;2.63;;;;;;;15.91;50.43;100126.66;5076105;28;20487;-70
2021/06/04 04:31:41;;;;;;;11.15;2.00;;;;;;;15.99;49.56;100121.25;5075548;28;20124;-71
2021/06/04 04:34:08;;;;;;;8.85;2.05;;;;;;;16.05;49.62;100123.19;5092468;28;20071;-72
2021/06/04 04:36:46;;;;;;;9.90;2.08;;;;;;;16.09;49.49;100119.13;5109072;28;20120;-73
2021/06/04 04:39:18;;;;;;;10.80;1.70;;;;;;;16.17;49.71;100111.88;5114943;28;20042;-72
2021/06/04 04:41:47;;;;;;;10.65;1.90;;;;;;;16.34;49.03;100113.38;5093787;28;20498;-73
2021/06/04 04:44:19;;;;;;;7.88;2.17;;;;;;;16.72;47.84;100112.28;5075578;28;20059;-72
2021/06/04 04:46:45;;;;;;;8.13;1.83;;;;;;;17.20;46.06;100107.31;5092623;28;20046;-72
2021/06/04 04:49:11;;;;;;;7.32;1.67;;;;;;;17.58;45.66;100115.00;5092533;28;20445;-73
2021/06/04 04:51:39;;;;;;;3.15;1.60;;;;;;;17.80;45.03;100107.78;5075845;28;20043;-73
2021/06/04 04:54:06;;;;;;;7.90;1.80;;;;;;;17.73;44.29;100113.09;5092464;28;20040;-73
2021/06/04 04:56:32;;;;;;;5.07;1.65;;;;;;;17.60;44.06;100112.13;5092633;28;20407;-74
2021/06/04 04:58:58;;;;;;;3.30;1.45;;;;;;;17.48;44.53;100110.97;5075617;28;20507;-73
2021/06/04 05:01:24;;;;;;;6.78;2.10;;;;;;;17.43;45.00;100121.41;5092359;28;20051;-73
2021/06/04 05:03:50;;;;;;;8.95;1.83;;;;;;;17.43;45.07;100111.50;5075491;28;20050;-71
2021/06/04 05:06:16;;;;;;;6.65;1.67;;;;;;;17.52;44.49;100121.16;5074682;28;20047;-74
2021/06/04 05:08:42;;;;;;;8.70;1.85;;;;;;;17.52;44.77;100118.47;5101908;28;20036;-70
2021/06/04 05:11:08;;;;;;;8.18;1.70;;;;;;;17.55;45.63;100110.00;5075183;28;20579;-70
2021/06/04 05:13:35;;;;;;;11.20;1.80;;;;;;;17.58;44.39;100104.25;5091849;28;20488;-71
2021/06/04 05:16:04;;;;;;;3.47;1.73;;;;;;;17.62;46.36;100104.72;5073560;28;20051;-70
2021/06/04 05:18:32;;;;;;;5.65;2.03;;;;;;;17.68;45.56;100104.75;5094008;28;20101;-69
2021/06/04 05:20:58;;;;;;;8.95;1.90;;;;;;;17.74;45.04;100112.06;5087882;28;20097;-70
2021/06/04 05:23:24;;;;;;;4.65;1.65;;;;;;;17.80;44.11;100105.94;5037982;28;20046;-70
2021/06/04 05:25:51;;;;;;;10.35;1.80;;;;;;;17.86;43.79;100101.63;5054989;28;20128;-70
2021/06/04 05:28:20;;;;;;;4.68;1.67;;;;;;;17.88;43.89;100104.97;5055217;28;20048;-69
2021/06/04 05:30:49;;;;;;;4.07;2.00;;;;;;;17.94;43.65;100105.00;5071554;28;20055;-70
2021/06/04 05:33:18;;;;;;;10.02;2.00;;;;;;;18.01;45.17;100110.44;5054759;28;20040;-70
2021/06/04 05:35:48;;;;;;;8.52;2.08;;;;;;;18.08;45.11;100111.34;5052182;28;20040;-74
2021/06/04 05:38:14;;;;;;;5.72;1.73;;;;;;;18.16;43.54;100109.31;5089745;28;20509;-69
2021/06/04 05:40:44;;;;;;;7.78;2.17;;;;;;;18.24;43.21;100117.25;5074550;28;20599;-70
2021/06/04 05:43:12;;;;;;;5.63;1.90;;;;;;;18.27;43.49;100097.19;5092024;28;20107;-68
2021/06/04 05:45:42;;;;;;;11.95;2.00;;;;;;;18.31;43.25;100107.38;5074076;28;20134;-70
2021/06/04 05:48:10;;;;;;;15.57;2.10;;;;;;;18.37;42.80;100109.28;5090980;28;20043;-69
2021/06/04 05:50:38;;;;;;;7.72;1.80;;;;;;;18.43;42.25;100107.69;5077413;28;20043;-69
2021/06/04 05:53:07;;;;;;;6.97;2.05;;;;;;;18.50;42.10;100102.38;5111416;28;20047;-69
2021/06/04 05:55:36;;;;;;;6.80;1.73;;;;;;;18.45;41.61;100079.56;5076450;28;20043;-69
2021/06/04 05:58:09;;;;;;;7.00;1.60;;;;;;;18.67;42.14;100107.22;5061338;28;20456;-70
2021/06/04 06:00:45;;;;;;;10.57;1.90;;;;;;;18.68;42.13;100095.44;5095361;28;20048;-69
2021/06/04 06:03:13;;;;;;;10.13;1.80;;;;;;;18.77;40.84;100101.47;5061385;28;20088;-69
2021/06/04 06:05:39;;;;;;;3.47;1.67;;;;;;;18.82;41.41;100105.22;5094744;28;20047;-71
2021/06/04 06:08:05;;;;;;;4.88;1.77;;;;;;;18.84;41.83;100097.78;5077639;28;20052;-71
2021/06/04 06:10:33;;;;;;;7.75;2.10;;;;;;;18.88;40.60;100095.53;5078451;28;20039;-70
2021/06/04 06:12:59;;;;;;;7.75;2.17;;;;;;;18.93;40.86;100098.47;5077489;28;20414;-70
2021/06/04 06:15:31;;;;;;;8.27;1.88;;;;;;;19.00;40.80;100094.78;5075678;28;20047;-71
2021/06/04 06:17:57;;;;;;;9.43;2.00;;;;;;;19.14;39.85;100103.72;5109394;28;20043;-72
2021/06/04 06:20:26;;;;;;;8.77;2.20;;;;;;;19.17;39.87;100082.63;5076377;28;20051;-70
2021/06/04 06:22:54;;;;;;;11.13;2.25;;;;;;;19.20;38.97;100097.53;5059757;28;20408;-70
2021/06/04 06:25:28;;;;;;;7.78;2.75;;;;;;;19.25;40.12;100092.38;5093263;28;20103;-70
2021/06/04 06:27:55;;;;;;;8.70;2.47;;;;;;;19.32;39.64;100090.53;5111221;28;20055;-72
2021/06/04 06:30:24;;;;;;;13.63;3.03;;;;;;;19.37;39.28;100096.97;5077454;28;20529;-69
2021/06/04 06:32:50;;;;;;;6.80;2.40;;;;;;;19.45;38.79;100091.41;5061048;28;20070;-68
2021/06/04 06:35:17;;;;;;;5.90;1.90;;;;;;;19.43;38.18;100066.56;5077050;28;20070;-69
2021/06/04 06:37:42;;;;;;;6.55;2.35;;;;;;;19.63;37.86;100094.38;5077467;28;20039;-69
2021/06/04 06:40:10;;;;;;;7.82;3.20;;;;;;;19.72;38.67;100098.53;5077334;28;20046;-70
2021/06/04 06:42:36;;;;;;;9.25;2.55;;;;;;;19.76;38.04;100080.88;5060699;28;20039;-70
2021/06/04 06:45:05;;;;;;;10.10;2.25;;;;;;;19.78;36.88;100086.06;5076850;28;20530;-70
2021/06/04 06:47:31;;;;;;;10.40;3.05;;;;;;;19.84;37.63;100091.47;5077173;28;20511;-70
2021/06/04 06:49:57;;;;;;;9.88;1.83;;;;;;;19.89;37.15;100089.00;5060333;28;20139;-74
2021/06/04 06:52:22;;;;;;;9.60;2.20;;;;;;;19.97;37.11;100093.34;5060688;28;20047;-69
2021/06/04 06:54:48;;;;;;;4.55;1.80;;;;;;;20.04;36.20;100091.47;5076872;28;20092;-69
2021/06/04 06:57:14;;;;;;;7.93;2.25;;;;;;;20.10;36.32;100093.34;5076819;28;20054;-69
2021/06/04 06:59:40;;;;;;;6.20;2.22;;;;;;;20.21;36.58;100081.09;5059836;28;20392;-72
2021/06/04 07:02:10;;;;;;;9.18;2.13;;;;;;;20.33;36.03;100098.34;5060143;28;20114;-74
2021/06/04 07:04:37;;;;;;;10.20;2.22;;;;;;;20.36;36.27;100074.44;5110643;28;20112;-76
2021/06/04 07:07:04;;;;;;;9.30;2.53;;;;;;;20.64;36.89;100093.06;5110451;28;20039;-77
2021/06/04 07:09:30;;;;;;;5.85;2.78;;;;;;;20.82;35.08;100095.94;5094018;28;20040;-77
2021/06/04 07:11:56;;;;;;;5.43;2.50;;;;;;;21.00;35.63;100085.31;5076689;28;20044;-73
2021/06/04 07:14:28;;;;;;;11.13;2.25;;;;;;;21.19;35.33;100089.78;5110780;28;20051;-74
2021/06/04 07:16:55;;;;;;;8.25;2.38;;;;;;;21.39;35.57;100099.44;5077450;28;20655;-74
2021/06/04 07:19:21;;;;;;;6.03;2.08;;;;;;;21.64;34.33;100086.00;5093835;28;20526;-74
2021/06/04 07:21:47;;;;;;;7.90;1.90;;;;;;;21.97;34.10;100091.19;5092835;28;20040;-74
2021/06/04 07:24:14;;;;;;;13.85;2.45;;;;;;;22.42;33.28;100077.25;5076622;28;20047;-75
2021/06/04 07:26:48;;;;;;;12.50;1.88;;;;;;;23.08;32.10;100093.59;5110467;28;20039;-79
2021/06/04 07:29:16;;;;;;;12.80;2.20;;;;;;;23.70;30.91;100098.63;5082391;28;20036;-77
2021/06/04 07:31:42;;;;;;;11.63;2.50;;;;;;;24.46;30.96;100091.28;5078622;28;20044;-73
2021/06/04 07:34:09;;;;;;;12.45;2.92;;;;;;;25.32;29.74;100085.00;5062935;28;20090;-74
2021/06/04 07:36:37;;;;;;;7.28;2.50;;;;;;;26.33;27.95;100094.75;5076779;28;20044;-76
2021/06/04 07:39:06;;;;;;;8.18;2.42;;;;;;;28.00;25.81;100091.13;5062376;28;20144;-74
2021/06/04 07:41:33;;;;;;;10.50;2.72;;;;;;;29.73;23.75;100084.44;5076285;28;20389;-75
2021/06/04 07:43:59;;;;;;;18.00;2.65;;;;;;;31.03;22.22;100088.94;5044364;28;20051;-76
2021/06/04 07:46:25;;;;;;;9.30;2.50;;;;;;;32.20;20.77;100074.22;5052342;28;20399;-76
2021/06/04 07:48:53;;;;;;;11.23;2.30;;;;;;;33.48;19.87;100076.94;5044044;28;20750;-75
2021/06/04 07:51:22;;;;;;;8.30;2.13;;;;;;;34.32;18.55;100060.16;5075554;28;20514;-75
2021/06/04 07:53:48;;;;;;;10.13;2.30;;;;;;;35.19;17.83;100058.19;5072434;28;20074;-76
2021/06/04 07:56:16;;;;;;;10.75;1.92;;;;;;;36.42;16.57;100065.75;5052292;28;20054;-75
2021/06/04 07:58:43;;;;;;;4.65;1.92;;;;;;;37.34;15.84;100060.06;5063375;28;20051;-76
2021/06/04 08:01:09;;;;;;;7.93;1.95;;;;;;;38.27;14.97;100061.22;5060722;28;20119;-75
2021/06/04 08:03:35;;;;;;;9.75;2.08;;;;;;;38.99;14.28;100061.16;5062718;28;20044;-75
2021/06/04 08:06:03;;;;;;;8.63;2.10;;;;;;;39.76;13.85;100064.22;5063125;28;20052;-75
2021/06/04 08:08:29;;;;;;;6.03;1.65;;;;;;;40.46;12.95;100058.47;5067877;28;20043;-76
2021/06/04 08:10:56;;;;;;;11.95;1.63;;;;;;;41.24;12.34;100037.59;5051178;28;20090;-76
2021/06/04 08:13:23;;;;;;;7.75;1.35;;;;;;;41.46;12.02;100031.53;5062507;28;20036;-77
2021/06/04 08:16:00;;;;;;;10.00;1.60;;;;;;;41.30;11.72;100046.56;5051038;28;20044;-77
2021/06/04 08:18:32;;;;;;;11.13;1.65;;;;;;;41.88;11.53;100036.72;5064853;28;20032;-75
2021/06/04 08:20:59;;;;;;;6.53;1.60;;;;;;;42.93;11.45;100034.00;5079101;28;20047;-76
2021/06/04 08:23:35;;;;;;;13.27;1.70;;;;;;;43.58;10.57;100035.13;5062205;28;20466;-77
2021/06/04 08:26:03;;;;;;;9.98;1.45;;;;;;;44.15;10.59;100024.69;5079047;28;20487;-78
2021/06/04 08:28:29;;;;;;;14.35;2.08;;;;;;;44.51;10.20;100035.41;5077831;28;20067;-78
2021/06/04 08:30:56;;;;;;;7.75;1.40;;;;;;;44.90;9.67;100032.44;5078285;28;20500;-77
2021/06/04 08:33:27;;;;;;;11.75;1.40;;;;;;;44.86;9.54;100011.97;5045487;28;20075;-78
2021/06/04 08:35:54;;;;;;;8.40;1.70;;;;;;;44.93;9.72;100017.66;5061738;28;20044;-78
2021/06/04 08:38:20;;;;;;;10.75;1.80;;;;;;;45.28;9.31;100027.44;5062306;28;20401;-78
2021/06/04 08:40:46;;;;;;;21.23;2.10;;;;;;;45.63;9.28;100007.44;5059958;28;20105;-77
2021/06/04 08:43:27;;;;;;;8.20;1.48;;;;;;;45.75;8.70;100008.00;5044477;28;20055;-76
2021/06/04 08:45:59;;;;;;;11.52;1.50;;;;;;;46.11;8.32;100010.03;5062506;28;20041;-76
2021/06/04 08:48:44;;;;;;;14.18;1.50;;;;;;;46.22;8.62;100001.75;5078944;28;20040;-77
2021/06/04 08:51:33;;;;;;;9.40;1.17;;;;;;;45.81;8.74;99994.47;5093575;28;20072;-78
2021/06/04 08:53:59;;;;;;;10.18;1.65;;;;;;;45.44;9.09;99990.78;5065365;28;20512;-76
2021/06/04 08:56:37;;;;;;;11.10;1.20;;;;;;;45.74;9.18;99981.13;5061979;28;20078;-76
2021/06/04 08:59:09;;;;;;;8.00;1.38;;;;;;;45.39;8.82;99972.28;5052104;28;20139;-76
2021/06/04 09:02:15;;;;;;;10.00;1.13;;;;;;;44.82;9.14;99994.25;5076801;28;20047;-76
2021/06/04 09:04:48;;;;;;;14.88;1.65;;;;;;;44.85;8.95;99991.50;5063019;28;20109;-75
2021/06/04 09:07:18;;;;;;;5.68;1.00;;;;;;;45.05;9.35;99973.41;5049889;28;20044;-76
2021/06/04 09:10:03;;;;;;;9.63;1.45;;;;;;;45.22;9.03;99969.22;5062325;28;20484;-76
2021/06/04 09:12:52;;;;;;;7.35;1.10;;;;;;;45.41;9.06;99971.91;5078299;28;20078;-76
2021/06/04 09:15:25;;;;;;;8.20;1.48;;;;;;;45.20;8.97;99972.41;5057622;28;20075;-77
2021/06/04 09:18:02;;;;;;;5.78;1.30;;;;;;;44.41;9.39;99965.16;5031329;28;20044;-75
2021/06/04 09:20:43;;;;;;;6.43;1.13;;;;;;;43.89;9.15;99959.38;5048175;28;20043;-74
2021/06/04 09:23:11;;;;;;;8.88;1.80;;;;;;;43.44;9.82;99951.69;5063612;28;20157;-75
2021/06/04 09:25:38;;;;;;;4.27;1.47;;;;;;;43.93;9.45;99955.50;5068912;28;20040;-76
2021/06/04 09:28:29;;;;;;;8.07;1.33;;;;;;;44.58;9.05;99948.63;5067779;28;20334;-75
2021/06/04 09:30:59;;;;;;;8.00;1.20;;;;;;;44.77;8.92;99949.72;5041952;28;20505;-75
2021/06/04 09:33:31;;;;;;;12.60;1.50;;;;;;;44.73;8.94;99942.06;5052147;28;20062;-75
2021/06/04 09:36:05;;;;;;;16.00;1.58;;;;;;;44.53;9.49;99937.72;5051954;28;20076;-74
2021/06/04 09:38:34;;;;;;;9.55;1.17;;;;;;;44.28;9.26;99939.34;5051532;28;20049;-76
2021/06/04 09:41:25;;;;;;;6.28;1.00;;;;;;;44.34;9.17;99929.44;5068459;28;20471;-76
2021/06/04 09:44:06;;;;;;;10.35;1.20;;;;;;;44.66;9.28;99927.97;5066410;28;20040;-76
2021/06/04 09:46:36;;;;;;;8.18;1.30;;;;;;;45.13;9.23;99918.22;5081912;28;20039;-75
2021/06/04 09:49:02;;;;;;;11.45;1.15;;;;;;;45.36;8.81;99907.69;5082273;28;20079;-75
2021/06/04 09:51:32;;;;;;;17.02;1.23;;;;;;;44.58;8.96;99922.56;5080229;28;20100;-75
2021/06/04 09:54:16;;;;;;;;;;;;;;;44.20;9.48;99917.97;5073420;28;20047;-75
2021/06/04 09:56:42;;;;;;;9.77;1.40;;;;;;;44.18;9.39;99897.91;5081489;28;19916;-75
2021/06/04 09:59:13;;;;;;;3.85;1.13;;;;;;;43.82;9.42;99887.28;5081964;28;20442;-75
2021/06/04 10:01:45;;;;;;;7.30;1.10;;;;;;;44.31;9.06;99899.38;5065428;28;20563;-75
2021/06/04 10:04:23;;;;;;;7.88;1.15;;;;;;;44.08;9.34;99898.56;5048473;28;20052;-76
2021/06/04 10:07:00;;;;;;;17.03;1.63;;;;;;;43.36;10.11;99888.38;5065049;28;20048;-75
2021/06/04 10:09:32;;;;;;;6.63;1.05;;;;;;;42.97;9.76;99892.31;5065100;28;20077;-74
2021/06/04 10:12:06;;;;;;;10.90;1.60;;;;;;;42.77;10.13;99888.69;5062273;28;20503;-75
2021/06/04 10:14:48;;;;;;;8.25;1.30;;;;;;;42.69;9.86;99863.72;5055935;28;20044;-75
2021/06/04 10:19:58;;;;;;;16.08;1.55;;;;;;;42.31;10.01;99864.44;5082149;28;20511;-75
2021/06/04 10:22:32;;;;;;;9.98;1.30;;;;;;;42.21;9.99;99876.13;5047232;28;20066;-75
2021/06/04 10:25:01;;;;;;;7.00;1.20;;;;;;;41.94;10.13;99881.81;5069865;28;20420;-75
2021/06/04 10:27:28;;;;;;;11.52;1.13;;;;;;;41.53;10.24;99872.75;5062441;28;20048;-75
2021/06/04 10:29:59;;;;;;;16.08;1.42;;;;;;;41.59;10.73;99876.09;5080690;28;20510;-75
2021/06/04 10:32:31;;;;;;;8.88;1.38;;;;;;;41.47;10.60;99863.00;5063023;28;20558;-74
2021/06/04 10:35:12;;;;;;;11.25;1.33;;;;;;;41.04;10.75;99871.28;5064051;28;20043;-74
2021/06/04 10:38:00;;;;;;;8.57;1.05;;;;;;;41.01;10.88;99849.72;5082047;28;20526;-76
2021/06/04 10:40:39;;;;;;;5.53;1.08;;;;;;;41.08;10.54;99844.34;5070943;28;20167;-74
2021/06/04 10:43:48;;;;;;;6.85;1.70;;;;;;;40.16;10.79;99845.44;5081081;28;20408;-76
2021/06/04 10:46:19;;;;;;;13.30;1.20;;;;;;;39.87;11.21;99826.19;5072958;28;20504;-75
2021/06/04 10:48:47;;;;;;;11.25;1.52;;;;;;;39.05;11.54;99831.94;5065466;28;20051;-75
2021/06/04 10:51:28;;;;;;;14.10;1.45;;;;;;;38.47;11.81;99822.56;5061726;28;20048;-74
2021/06/04 10:54:00;;;;;;;7.97;1.60;;;;;;;38.38;12.21;99843.22;5064411;28;20044;-74
2021/06/04 10:56:35;;;;;;;7.63;1.13;;;;;;;38.15;12.28;99842.69;5059042;28;20406;-74
2021/06/04 10:59:15;;;;;;;5.30;1.15;;;;;;;37.87;12.10;99852.59;5070406;28;20056;-74
2021/06/04 11:02:00;;;;;;;14.05;1.60;;;;;;;37.46;12.26;99844.06;5058580;28;20056;-74
2021/06/04 11:05:12;;;;;;;4.97;1.33;;;;;;;36.28;13.61;99831.75;5086100;28;20123;-73
2021/06/04 11:08:14;;;;;;;8.75;1.33;;;;;;;34.80;14.41;99846.16;5080166;28;20039;-73
2021/06/04 11:10:52;;;;;;;15.77;1.50;;;;;;;33.18;15.08;99824.03;5036872;28;20049;-74
2021/06/04 11:13:21;;;;;;;13.82;2.10;;;;;;;32.22;17.54;99835.59;5083082;28;20047;-75
2021/06/04 11:15:53;;;;;;;29.27;2.70;;;;;;;31.77;19.87;99836.13;5052541;28;20436;-73
2021/06/04 11:18:40;;;;;;;13.18;1.90;;;;;;;30.95;17.64;99824.22;5035668;28;20070;-77
2021/06/04 11:21:32;;;;;;;6.93;1.58;;;;;;;30.18;18.40;99802.22;5068894;28;20127;-77
2021/06/04 11:24:08;;;;;;;19.27;1.77;;;;;;;29.75;18.49;99816.63;5067958;28;20064;-71
2021/06/04 11:26:54;;;;;;;11.68;1.80;;;;;;;29.04;19.65;99825.97;5052058;28;20458;-73
2021/06/04 11:29:23;;;;;;;9.30;1.40;;;;;;;28.57;20.14;99808.97;5067987;28;20054;-73
2021/06/04 11:31:59;;;;;;;12.77;2.33;;;;;;;28.03;20.64;99794.88;5085009;28;20059;-74
2021/06/04 11:34:28;;;;;;;13.25;1.90;;;;;;;27.46;21.36;99813.91;5068621;28;20048;-73
2021/06/04 11:36:54;;;;;;;7.45;1.33;;;;;;;26.76;22.21;99812.50;5081291;28;20040;-73
2021/06/04 11:39:34;;;;;;;18.10;1.90;;;;;;;26.37;22.88;99815.34;5063057;28;20036;-72
2021/06/04 11:42:01;;;;;;;5.60;1.13;;;;;;;26.00;23.20;99806.19;5078568;28;20044;-70
2021/06/04 11:44:27;;;;;;;5.90;1.13;;;;;;;25.89;23.64;99818.00;5048146;28;20294;-70
2021/06/04 11:47:11;;;;;;;12.73;1.45;;;;;;;25.80;23.99;99824.16;5044644;28;20117;-72
2021/06/04 11:50:02;;;;;;;6.22;1.35;;;;;;;25.62;24.53;99822.53;5078944;28;20051;-71
2021/06/04 11:52:32;;;;;;;14.07;1.40;;;;;;;25.46;24.42;99820.69;5017786;28;20093;-71